sensor_id;sensor_type;location;lat;lon;timestamp;P1;durP1;ratioP1;P2;durP2;ratioP2
4873;SDS011;2451;49.970;9.068;2023-03-12T00:02:07;17.08;;;9.75;;
4873;SDS011;2451;49.970;9.068;2023-03-12T00:04:33;15.20;;;8.75;;
4873;SDS011;2451;49.970;9.068;2023-03-12T00:07:00;16.10;;;9.30;;
4873;SDS011;2451;49.970;9.068;2023-03-12T00:09:26;18.73;;;8.40;;
4873;SDS011;2451;49.970;9.068;2023-03-12T00:11:52;15.00;;;8.23;;
4873;SDS011;2451;49.970;9.068;2023-03-12T00:14:17;14.93;;;8.73;;
4873;SDS011;2451;49.970;9.068;2023-03-12T00:16:43;12.35;;;8.50;;
4873;SDS011;2451;49.970;9.068;2023-03-12T00:19:10;13.48;;;8.70;;
4873;SDS011;2451;49.970;9.068;2023-03-12T00:21:36;12.63;;;8.13;;
4873;SDS011;2451;49.970;9.068;2023-03-12T00:24:02;14.18;;;8.93;;
4873;SDS011;2451;49.970;9.068;2023-03-12T00:26:28;16.52;;;8.50;;
4873;SDS011;2451;49.970;9.068;2023-03-12T00:28:54;16.75;;;9.07;;
4873;SDS011;2451;49.970;9.068;2023-03-12T00:31:21;16.98;;;8.88;;
4873;SDS011;2451;49.970;9.068;2023-03-12T00:33:51;15.93;;;8.95;;
4873;SDS011;2451;49.970;9.068;2023-03-12T00:36:17;18.88;;;9.40;;
4873;SDS011;2451;49.970;9.068;2023-03-12T00:38:45;17.05;;;9.82;;
4873;SDS011;2451;49.970;9.068;2023-03-12T00:41:10;18.02;;;9.55;;
4873;SDS011;2451;49.970;9.068;2023-03-12T00:43:36;15.18;;;8.77;;
4873;SDS011;2451;49.970;9.068;2023-03-12T00:46:02;17.55;;;9.35;;
4873;SDS011;2451;49.970;9.068;2023-03-12T00:48:27;15.13;;;8.43;;
4873;SDS011;2451;49.970;9.068;2023-03-12T00:50:53;15.00;;;8.35;;
4873;SDS011;2451;49.970;9.068;2023-03-12T00:53:18;12.52;;;8.15;;
4873;SDS011;2451;49.970;9.068;2023-03-12T00:55:44;14.30;;;7.82;;
4873;SDS011;2451;49.970;9.068;2023-03-12T00:58:10;12.40;;;8.15;;
4873;SDS011;2451;49.970;9.068;2023-03-12T01:00:35;16.13;;;8.23;;
4873;SDS011;2451;49.970;9.068;2023-03-12T01:03:01;12.80;;;7.60;;
4873;SDS011;2451;49.970;9.068;2023-03-12T01:05:26;17.95;;;9.05;;
4873;SDS011;2451;49.970;9.068;2023-03-12T01:07:52;13.73;;;8.00;;
4873;SDS011;2451;49.970;9.068;2023-03-12T01:10:19;16.10;;;8.40;;
4873;SDS011;2451;49.970;9.068;2023-03-12T01:12:45;12.98;;;8.05;;
4873;SDS011;2451;49.970;9.068;2023-03-12T01:15:12;13.13;;;8.30;;
4873;SDS011;2451;49.970;9.068;2023-03-12T01:17:39;13.70;;;8.02;;
4873;SDS011;2451;49.970;9.068;2023-03-12T01:20:05;14.57;;;8.05;;
4873;SDS011;2451;49.970;9.068;2023-03-12T01:22:32;14.73;;;7.93;;
4873;SDS011;2451;49.970;9.068;2023-03-12T01:24:58;13.27;;;8.38;;
4873;SDS011;2451;49.970;9.068;2023-03-12T01:27:24;17.33;;;9.50;;
4873;SDS011;2451;49.970;9.068;2023-03-12T01:29:49;14.15;;;7.85;;
4873;SDS011;2451;49.970;9.068;2023-03-12T01:32:15;13.05;;;8.25;;
4873;SDS011;2451;49.970;9.068;2023-03-12T01:34:41;14.50;;;8.70;;
4873;SDS011;2451;49.970;9.068;2023-03-12T01:37:07;15.27;;;8.35;;
4873;SDS011;2451;49.970;9.068;2023-03-12T01:39:33;12.10;;;7.63;;
4873;SDS011;2451;49.970;9.068;2023-03-12T01:41:58;14.30;;;7.97;;
4873;SDS011;2451;49.970;9.068;2023-03-12T01:44:24;13.50;;;7.95;;
4873;SDS011;2451;49.970;9.068;2023-03-12T01:46:50;12.75;;;7.47;;
4873;SDS011;2451;49.970;9.068;2023-03-12T01:49:26;13.80;;;7.85;;
4873;SDS011;2451;49.970;9.068;2023-03-12T01:51:57;12.25;;;7.10;;
4873;SDS011;2451;49.970;9.068;2023-03-12T01:54:44;13.15;;;7.35;;
4873;SDS011;2451;49.970;9.068;2023-03-12T01:57:12;10.77;;;7.20;;
4873;SDS011;2451;49.970;9.068;2023-03-12T01:59:46;12.60;;;7.80;;
4873;SDS011;2451;49.970;9.068;2023-03-12T02:02:15;16.77;;;8.50;;
4873;SDS011;2451;49.970;9.068;2023-03-12T02:04:42;17.52;;;7.57;;
4873;SDS011;2451;49.970;9.068;2023-03-12T02:07:11;12.43;;;7.35;;
4873;SDS011;2451;49.970;9.068;2023-03-12T02:12:07;15.88;;;8.02;;
4873;SDS011;2451;49.970;9.068;2023-03-12T02:14:33;13.55;;;7.07;;
4873;SDS011;2451;49.970;9.068;2023-03-12T02:17:00;14.35;;;7.63;;
4873;SDS011;2451;49.970;9.068;2023-03-12T02:19:36;13.05;;;7.78;;
4873;SDS011;2451;49.970;9.068;2023-03-12T02:22:21;12.23;;;7.70;;
4873;SDS011;2451;49.970;9.068;2023-03-12T02:24:53;13.38;;;6.70;;
4873;SDS011;2451;49.970;9.068;2023-03-12T02:27:27;13.65;;;7.85;;
4873;SDS011;2451;49.970;9.068;2023-03-12T02:29:56;15.10;;;7.60;;
4873;SDS011;2451;49.970;9.068;2023-03-12T02:32:23;12.98;;;7.85;;
4873;SDS011;2451;49.970;9.068;2023-03-12T02:34:54;13.65;;;7.10;;
4873;SDS011;2451;49.970;9.068;2023-03-12T02:37:20;11.30;;;7.40;;
4873;SDS011;2451;49.970;9.068;2023-03-12T02:39:49;11.02;;;6.65;;
4873;SDS011;2451;49.970;9.068;2023-03-12T02:42:20;14.00;;;7.10;;
4873;SDS011;2451;49.970;9.068;2023-03-12T02:44:47;13.27;;;6.63;;
4873;SDS011;2451;49.970;9.068;2023-03-12T02:47:13;10.20;;;6.82;;
4873;SDS011;2451;49.970;9.068;2023-03-12T02:49:38;12.65;;;7.03;;
4873;SDS011;2451;49.970;9.068;2023-03-12T02:52:04;12.45;;;6.80;;
4873;SDS011;2451;49.970;9.068;2023-03-12T02:54:29;11.32;;;6.63;;
4873;SDS011;2451;49.970;9.068;2023-03-12T02:56:55;12.80;;;6.88;;
4873;SDS011;2451;49.970;9.068;2023-03-12T02:59:21;10.15;;;6.60;;
4873;SDS011;2451;49.970;9.068;2023-03-12T03:01:51;13.65;;;6.75;;
4873;SDS011;2451;49.970;9.068;2023-03-12T03:06:46;12.30;;;7.15;;
4873;SDS011;2451;49.970;9.068;2023-03-12T03:09:12;12.70;;;6.63;;
4873;SDS011;2451;49.970;9.068;2023-03-12T03:11:38;12.25;;;7.22;;
4873;SDS011;2451;49.970;9.068;2023-03-12T03:14:04;11.52;;;6.53;;
4873;SDS011;2451;49.970;9.068;2023-03-12T03:16:31;12.70;;;7.00;;
4873;SDS011;2451;49.970;9.068;2023-03-12T03:18:56;12.65;;;6.80;;
4873;SDS011;2451;49.970;9.068;2023-03-12T03:21:22;18.63;;;7.35;;
4873;SDS011;2451;49.970;9.068;2023-03-12T03:23:48;15.13;;;6.97;;
4873;SDS011;2451;49.970;9.068;2023-03-12T03:26:16;13.63;;;6.63;;
4873;SDS011;2451;49.970;9.068;2023-03-12T03:28:44;13.40;;;7.38;;
4873;SDS011;2451;49.970;9.068;2023-03-12T03:31:10;12.75;;;7.40;;
4873;SDS011;2451;49.970;9.068;2023-03-12T03:33:36;12.27;;;6.75;;
4873;SDS011;2451;49.970;9.068;2023-03-12T03:36:03;11.23;;;6.68;;
4873;SDS011;2451;49.970;9.068;2023-03-12T03:38:30;10.98;;;6.40;;
4873;SDS011;2451;49.970;9.068;2023-03-12T03:40:56;14.35;;;6.53;;
4873;SDS011;2451;49.970;9.068;2023-03-12T03:43:22;9.93;;;6.43;;
4873;SDS011;2451;49.970;9.068;2023-03-12T03:45:55;12.40;;;6.65;;
4873;SDS011;2451;49.970;9.068;2023-03-12T03:48:21;11.68;;;6.18;;
4873;SDS011;2451;49.970;9.068;2023-03-12T03:50:47;10.20;;;6.25;;
4873;SDS011;2451;49.970;9.068;2023-03-12T03:53:12;13.85;;;7.15;;
4873;SDS011;2451;49.970;9.068;2023-03-12T03:55:38;10.73;;;5.65;;
4873;SDS011;2451;49.970;9.068;2023-03-12T03:58:04;11.05;;;6.38;;
4873;SDS011;2451;49.970;9.068;2023-03-12T04:00:31;10.85;;;6.00;;
4873;SDS011;2451;49.970;9.068;2023-03-12T04:02:57;13.73;;;6.20;;
4873;SDS011;2451;49.970;9.068;2023-03-12T04:05:23;12.07;;;6.50;;
4873;SDS011;2451;49.970;9.068;2023-03-12T04:07:50;10.05;;;6.32;;
4873;SDS011;2451;49.970;9.068;2023-03-12T04:10:21;9.90;;;6.50;;
4873;SDS011;2451;49.970;9.068;2023-03-12T04:12:48;12.52;;;6.63;;
4873;SDS011;2451;49.970;9.068;2023-03-12T04:15:14;11.95;;;6.38;;
4873;SDS011;2451;49.970;9.068;2023-03-12T04:17:40;10.85;;;5.65;;
4873;SDS011;2451;49.970;9.068;2023-03-12T04:20:06;13.38;;;6.50;;
4873;SDS011;2451;49.970;9.068;2023-03-12T04:22:34;10.73;;;5.82;;
4873;SDS011;2451;49.970;9.068;2023-03-12T04:24:59;10.07;;;6.05;;
4873;SDS011;2451;49.970;9.068;2023-03-12T04:27:25;11.20;;;6.43;;
4873;SDS011;2451;49.970;9.068;2023-03-12T04:29:51;11.68;;;6.13;;
4873;SDS011;2451;49.970;9.068;2023-03-12T04:32:17;11.70;;;6.18;;
4873;SDS011;2451;49.970;9.068;2023-03-12T04:34:42;8.68;;;5.68;;
4873;SDS011;2451;49.970;9.068;2023-03-12T04:37:08;10.48;;;6.22;;
4873;SDS011;2451;49.970;9.068;2023-03-12T04:39:40;10.77;;;5.55;;
4873;SDS011;2451;49.970;9.068;2023-03-12T04:42:06;14.18;;;5.93;;
4873;SDS011;2451;49.970;9.068;2023-03-12T04:44:33;9.18;;;5.90;;
4873;SDS011;2451;49.970;9.068;2023-03-12T04:46:58;11.13;;;6.15;;
4873;SDS011;2451;49.970;9.068;2023-03-12T04:49:24;10.80;;;5.68;;
4873;SDS011;2451;49.970;9.068;2023-03-12T04:51:49;10.77;;;5.93;;
4873;SDS011;2451;49.970;9.068;2023-03-12T04:54:15;11.02;;;5.78;;
4873;SDS011;2451;49.970;9.068;2023-03-12T04:56:40;10.02;;;6.10;;
4873;SDS011;2451;49.970;9.068;2023-03-12T04:59:06;13.73;;;6.10;;
4873;SDS011;2451;49.970;9.068;2023-03-12T05:01:32;10.70;;;6.07;;
4873;SDS011;2451;49.970;9.068;2023-03-12T05:04:00;10.13;;;5.30;;
4873;SDS011;2451;49.970;9.068;2023-03-12T05:06:26;9.90;;;5.72;;
4873;SDS011;2451;49.970;9.068;2023-03-12T05:08:53;12.38;;;6.30;;
4873;SDS011;2451;49.970;9.068;2023-03-12T05:11:18;10.60;;;5.72;;
4873;SDS011;2451;49.970;9.068;2023-03-12T05:13:45;8.88;;;5.80;;
4873;SDS011;2451;49.970;9.068;2023-03-12T05:16:12;11.43;;;5.68;;
4873;SDS011;2451;49.970;9.068;2023-03-12T05:18:39;10.77;;;5.65;;
4873;SDS011;2451;49.970;9.068;2023-03-12T05:21:07;9.48;;;6.03;;
4873;SDS011;2451;49.970;9.068;2023-03-12T05:23:36;9.88;;;5.53;;
4873;SDS011;2451;49.970;9.068;2023-03-12T05:26:04;9.23;;;5.15;;
4873;SDS011;2451;49.970;9.068;2023-03-12T05:28:31;11.73;;;5.50;;
4873;SDS011;2451;49.970;9.068;2023-03-12T05:30:57;10.15;;;5.20;;
4873;SDS011;2451;49.970;9.068;2023-03-12T05:33:24;9.25;;;5.20;;
4873;SDS011;2451;49.970;9.068;2023-03-12T05:35:51;11.43;;;5.00;;
4873;SDS011;2451;49.970;9.068;2023-03-12T05:38:17;7.90;;;4.88;;
4873;SDS011;2451;49.970;9.068;2023-03-12T05:40:42;7.85;;;4.60;;
4873;SDS011;2451;49.970;9.068;2023-03-12T05:43:14;12.00;;;4.47;;
4873;SDS011;2451;49.970;9.068;2023-03-12T05:45:40;9.18;;;4.65;;
4873;SDS011;2451;49.970;9.068;2023-03-12T05:48:05;10.27;;;4.72;;
4873;SDS011;2451;49.970;9.068;2023-03-12T05:50:31;9.75;;;4.53;;
4873;SDS011;2451;49.970;9.068;2023-03-12T05:52:56;8.90;;;4.60;;
4873;SDS011;2451;49.970;9.068;2023-03-12T05:55:22;9.95;;;4.68;;
4873;SDS011;2451;49.970;9.068;2023-03-12T05:57:47;10.52;;;4.68;;
4873;SDS011;2451;49.970;9.068;2023-03-12T06:00:13;10.98;;;4.43;;
4873;SDS011;2451;49.970;9.068;2023-03-12T06:02:39;11.85;;;5.05;;
4873;SDS011;2451;49.970;9.068;2023-03-12T06:05:05;8.27;;;5.45;;
4873;SDS011;2451;49.970;9.068;2023-03-12T06:07:31;12.13;;;5.75;;
4873;SDS011;2451;49.970;9.068;2023-03-12T06:09:56;8.55;;;5.18;;
4873;SDS011;2451;49.970;9.068;2023-03-12T06:12:23;10.32;;;5.35;;
4873;SDS011;2451;49.970;9.068;2023-03-12T06:14:49;12.07;;;5.50;;
4873;SDS011;2451;49.970;9.068;2023-03-12T06:17:14;11.02;;;5.63;;
4873;SDS011;2451;49.970;9.068;2023-03-12T06:19:40;9.45;;;5.43;;
4873;SDS011;2451;49.970;9.068;2023-03-12T06:22:05;9.18;;;5.28;;
4873;SDS011;2451;49.970;9.068;2023-03-12T06:24:31;10.82;;;5.53;;
4873;SDS011;2451;49.970;9.068;2023-03-12T06:26:56;9.90;;;5.55;;
4873;SDS011;2451;49.970;9.068;2023-03-12T06:29:22;9.88;;;5.32;;
4873;SDS011;2451;49.970;9.068;2023-03-12T06:31:47;13.43;;;6.00;;
4873;SDS011;2451;49.970;9.068;2023-03-12T06:34:16;11.02;;;5.60;;
4873;SDS011;2451;49.970;9.068;2023-03-12T06:36:41;11.73;;;5.53;;
4873;SDS011;2451;49.970;9.068;2023-03-12T06:39:07;12.38;;;5.47;;
4873;SDS011;2451;49.970;9.068;2023-03-12T06:41:34;8.95;;;5.30;;
4873;SDS011;2451;49.970;9.068;2023-03-12T06:44:00;14.00;;;5.18;;
4873;SDS011;2451;49.970;9.068;2023-03-12T06:46:29;9.48;;;5.18;;
4873;SDS011;2451;49.970;9.068;2023-03-12T06:48:55;13.35;;;6.00;;
4873;SDS011;2451;49.970;9.068;2023-03-12T06:51:21;8.43;;;5.07;;
4873;SDS011;2451;49.970;9.068;2023-03-12T06:53:46;9.13;;;5.05;;
4873;SDS011;2451;49.970;9.068;2023-03-12T06:56:12;8.23;;;5.10;;
4873;SDS011;2451;49.970;9.068;2023-03-12T06:58:38;6.47;;;4.60;;
4873;SDS011;2451;49.970;9.068;2023-03-12T07:01:04;10.48;;;5.40;;
4873;SDS011;2451;49.970;9.068;2023-03-12T07:03:30;12.05;;;5.00;;
4873;SDS011;2451;49.970;9.068;2023-03-12T07:05:56;9.18;;;5.20;;
4873;SDS011;2451;49.970;9.068;2023-03-12T07:08:22;9.25;;;5.35;;
4873;SDS011;2451;49.970;9.068;2023-03-12T07:10:49;8.93;;;5.53;;
4873;SDS011;2451;49.970;9.068;2023-03-12T07:13:14;11.15;;;5.07;;
4873;SDS011;2451;49.970;9.068;2023-03-12T07:15:40;11.52;;;5.95;;
4873;SDS011;2451;49.970;9.068;2023-03-12T07:18:08;12.05;;;5.65;;
4873;SDS011;2451;49.970;9.068;2023-03-12T07:20:35;12.23;;;5.60;;
4873;SDS011;2451;49.970;9.068;2023-03-12T07:23:02;10.40;;;5.55;;
4873;SDS011;2451;49.970;9.068;2023-03-12T07:25:27;11.52;;;5.78;;
4873;SDS011;2451;49.970;9.068;2023-03-12T07:27:53;11.45;;;5.65;;
4873;SDS011;2451;49.970;9.068;2023-03-12T07:30:19;13.27;;;7.25;;
4873;SDS011;2451;49.970;9.068;2023-03-12T07:32:44;15.10;;;8.38;;
4873;SDS011;2451;49.970;9.068;2023-03-12T07:35:10;12.13;;;7.03;;
4873;SDS011;2451;49.970;9.068;2023-03-12T07:37:35;8.85;;;5.40;;
4873;SDS011;2451;49.970;9.068;2023-03-12T07:40:01;12.57;;;5.57;;
4873;SDS011;2451;49.970;9.068;2023-03-12T07:42:31;11.38;;;5.47;;
4873;SDS011;2451;49.970;9.068;2023-03-12T07:44:57;10.02;;;5.13;;
4873;SDS011;2451;49.970;9.068;2023-03-12T07:47:23;10.25;;;5.75;;
4873;SDS011;2451;49.970;9.068;2023-03-12T07:49:48;13.68;;;6.07;;
4873;SDS011;2451;49.970;9.068;2023-03-12T07:52:14;11.57;;;5.90;;
4873;SDS011;2451;49.970;9.068;2023-03-12T07:54:39;10.82;;;5.70;;
4873;SDS011;2451;49.970;9.068;2023-03-12T07:57:05;12.18;;;5.70;;
4873;SDS011;2451;49.970;9.068;2023-03-12T07:59:31;10.18;;;5.57;;
4873;SDS011;2451;49.970;9.068;2023-03-12T08:01:57;8.38;;;5.32;;
4873;SDS011;2451;49.970;9.068;2023-03-12T08:04:22;13.93;;;6.30;;
4873;SDS011;2451;49.970;9.068;2023-03-12T08:06:48;11.38;;;5.80;;
4873;SDS011;2451;49.970;9.068;2023-03-12T08:09:14;11.73;;;5.80;;
4873;SDS011;2451;49.970;9.068;2023-03-12T08:11:39;11.13;;;5.68;;
4873;SDS011;2451;49.970;9.068;2023-03-12T08:14:05;9.90;;;5.60;;
4873;SDS011;2451;49.970;9.068;2023-03-12T08:16:30;10.93;;;5.47;;
4873;SDS011;2451;49.970;9.068;2023-03-12T08:18:56;9.70;;;5.20;;
4873;SDS011;2451;49.970;9.068;2023-03-12T08:21:22;8.80;;;5.65;;
4873;SDS011;2451;49.970;9.068;2023-03-12T08:23:47;9.35;;;5.13;;
4873;SDS011;2451;49.970;9.068;2023-03-12T08:26:13;10.48;;;5.65;;
4873;SDS011;2451;49.970;9.068;2023-03-12T08:28:38;9.73;;;5.45;;
4873;SDS011;2451;49.970;9.068;2023-03-12T08:31:04;8.68;;;5.03;;
4873;SDS011;2451;49.970;9.068;2023-03-12T08:33:30;11.85;;;5.20;;
4873;SDS011;2451;49.970;9.068;2023-03-12T08:35:56;10.18;;;5.30;;
4873;SDS011;2451;49.970;9.068;2023-03-12T08:38:22;10.50;;;5.03;;
4873;SDS011;2451;49.970;9.068;2023-03-12T08:40:54;10.40;;;5.82;;
4873;SDS011;2451;49.970;9.068;2023-03-12T08:43:23;10.25;;;5.95;;
4873;SDS011;2451;49.970;9.068;2023-03-12T08:45:53;10.07;;;6.00;;
4873;SDS011;2451;49.970;9.068;2023-03-12T08:48:22;12.52;;;5.70;;
4873;SDS011;2451;49.970;9.068;2023-03-12T08:50:48;11.57;;;6.07;;
4873;SDS011;2451;49.970;9.068;2023-03-12T08:53:14;13.18;;;6.50;;
4873;SDS011;2451;49.970;9.068;2023-03-12T08:55:40;12.68;;;6.20;;
4873;SDS011;2451;49.970;9.068;2023-03-12T08:58:06;12.95;;;8.48;;
4873;SDS011;2451;49.970;9.068;2023-03-12T09:00:31;12.15;;;7.55;;
4873;SDS011;2451;49.970;9.068;2023-03-12T09:02:57;12.55;;;7.95;;
4873;SDS011;2451;49.970;9.068;2023-03-12T09:05:25;9.48;;;5.45;;
4873;SDS011;2451;49.970;9.068;2023-03-12T09:07:54;10.50;;;5.43;;
4873;SDS011;2451;49.970;9.068;2023-03-12T09:10:21;10.43;;;5.40;;
4873;SDS011;2451;49.970;9.068;2023-03-12T09:12:47;9.55;;;5.75;;
4873;SDS011;2451;49.970;9.068;2023-03-12T09:15:12;10.88;;;5.70;;
4873;SDS011;2451;49.970;9.068;2023-03-12T09:17:38;11.40;;;6.40;;
4873;SDS011;2451;49.970;9.068;2023-03-12T09:20:04;10.40;;;6.20;;
4873;SDS011;2451;49.970;9.068;2023-03-12T09:22:32;12.87;;;6.90;;
4873;SDS011;2451;49.970;9.068;2023-03-12T09:25:00;12.10;;;6.00;;
4873;SDS011;2451;49.970;9.068;2023-03-12T09:27:28;11.45;;;7.43;;
4873;SDS011;2451;49.970;9.068;2023-03-12T09:29:53;15.55;;;6.88;;
4873;SDS011;2451;49.970;9.068;2023-03-12T09:32:19;13.60;;;7.13;;
4873;SDS011;2451;49.970;9.068;2023-03-12T09:34:45;15.80;;;7.70;;
4873;SDS011;2451;49.970;9.068;2023-03-12T09:37:10;14.07;;;7.07;;
4873;SDS011;2451;49.970;9.068;2023-03-12T09:39:36;12.45;;;6.65;;
4873;SDS011;2451;49.970;9.068;2023-03-12T09:42:02;12.73;;;7.57;;
4873;SDS011;2451;49.970;9.068;2023-03-12T09:44:41;16.27;;;9.05;;
4873;SDS011;2451;49.970;9.068;2023-03-12T09:49:57;13.07;;;7.25;;
4873;SDS011;2451;49.970;9.068;2023-03-12T09:52:33;14.43;;;7.70;;
4873;SDS011;2451;49.970;9.068;2023-03-12T09:55:14;14.30;;;7.53;;
4873;SDS011;2451;49.970;9.068;2023-03-12T09:57:43;15.83;;;8.13;;
4873;SDS011;2451;49.970;9.068;2023-03-12T10:00:10;15.43;;;9.00;;
4873;SDS011;2451;49.970;9.068;2023-03-12T10:10:51;16.00;;;8.32;;
4873;SDS011;2451;49.970;9.068;2023-03-12T10:19:43;13.88;;;7.20;;
4873;SDS011;2451;49.970;9.068;2023-03-12T10:22:31;16.27;;;7.38;;
4873;SDS011;2451;49.970;9.068;2023-03-12T10:25:37;15.15;;;8.48;;
4873;SDS011;2451;49.970;9.068;2023-03-12T10:28:18;13.43;;;8.30;;
4873;SDS011;2451;49.970;9.068;2023-03-12T10:30:55;13.52;;;7.75;;
4873;SDS011;2451;49.970;9.068;2023-03-12T10:33:26;13.40;;;7.10;;
4873;SDS011;2451;49.970;9.068;2023-03-12T10:36:08;13.20;;;7.53;;
4873;SDS011;2451;49.970;9.068;2023-03-12T10:38:40;14.05;;;7.80;;
4873;SDS011;2451;49.970;9.068;2023-03-12T10:41:15;13.52;;;7.28;;
4873;SDS011;2451;49.970;9.068;2023-03-12T10:43:44;15.90;;;8.10;;
4873;SDS011;2451;49.970;9.068;2023-03-12T10:48:38;15.63;;;8.25;;
4873;SDS011;2451;49.970;9.068;2023-03-12T10:51:07;13.85;;;7.82;;
4873;SDS011;2451;49.970;9.068;2023-03-12T10:53:34;17.20;;;8.07;;
4873;SDS011;2451;49.970;9.068;2023-03-12T10:56:03;15.98;;;8.88;;
4873;SDS011;2451;49.970;9.068;2023-03-12T10:58:42;16.80;;;10.25;;
4873;SDS011;2451;49.970;9.068;2023-03-12T11:01:23;16.83;;;10.35;;
4873;SDS011;2451;49.970;9.068;2023-03-12T11:03:50;20.98;;;9.10;;
4873;SDS011;2451;49.970;9.068;2023-03-12T11:06:22;15.55;;;8.35;;
4873;SDS011;2451;49.970;9.068;2023-03-12T11:09:03;13.40;;;7.65;;
4873;SDS011;2451;49.970;9.068;2023-03-12T11:11:35;10.88;;;7.50;;
4873;SDS011;2451;49.970;9.068;2023-03-12T11:14:06;16.00;;;7.65;;
4873;SDS011;2451;49.970;9.068;2023-03-12T11:16:40;13.45;;;7.45;;
4873;SDS011;2451;49.970;9.068;2023-03-12T11:19:05;10.68;;;7.10;;
4873;SDS011;2451;49.970;9.068;2023-03-12T11:21:34;13.38;;;7.85;;
4873;SDS011;2451;49.970;9.068;2023-03-12T11:24:11;11.90;;;7.18;;
4873;SDS011;2451;49.970;9.068;2023-03-12T11:26:46;14.15;;;7.22;;
4873;SDS011;2451;49.970;9.068;2023-03-12T11:29:28;10.18;;;7.22;;
4873;SDS011;2451;49.970;9.068;2023-03-12T11:34:53;10.50;;;6.97;;
4873;SDS011;2451;49.970;9.068;2023-03-12T11:43:33;11.57;;;6.65;;
4873;SDS011;2451;49.970;9.068;2023-03-12T12:05:22;11.90;;;6.55;;
4873;SDS011;2451;49.970;9.068;2023-03-12T12:14:03;13.05;;;7.43;;
4873;SDS011;2451;49.970;9.068;2023-03-12T12:16:54;9.82;;;6.80;;
4873;SDS011;2451;49.970;9.068;2023-03-12T12:28:03;12.10;;;8.02;;
4873;SDS011;2451;49.970;9.068;2023-03-12T12:36:21;12.63;;;7.75;;
4873;SDS011;2451;49.970;9.068;2023-03-12T12:38:54;11.77;;;7.22;;
4873;SDS011;2451;49.970;9.068;2023-03-12T12:41:31;10.75;;;7.10;;
4873;SDS011;2451;49.970;9.068;2023-03-12T12:44:03;13.70;;;7.88;;
4873;SDS011;2451;49.970;9.068;2023-03-12T12:46:36;13.70;;;8.18;;
4873;SDS011;2451;49.970;9.068;2023-03-12T12:49:09;15.65;;;8.93;;
4873;SDS011;2451;49.970;9.068;2023-03-12T12:51:39;24.30;;;13.68;;
4873;SDS011;2451;49.970;9.068;2023-03-12T12:57:19;25.67;;;15.13;;
4873;SDS011;2451;49.970;9.068;2023-03-12T13:00:24;12.98;;;8.93;;
4873;SDS011;2451;49.970;9.068;2023-03-12T13:03:16;23.02;;;14.60;;
4873;SDS011;2451;49.970;9.068;2023-03-12T13:08:57;16.08;;;11.20;;
4873;SDS011;2451;49.970;9.068;2023-03-12T13:13:44;15.25;;;10.82;;
4873;SDS011;2451;49.970;9.068;2023-03-12T13:16:16;13.90;;;10.40;;
4873;SDS011;2451;49.970;9.068;2023-03-12T13:18:53;14.98;;;9.70;;
4873;SDS011;2451;49.970;9.068;2023-03-12T13:21:33;11.68;;;8.90;;
4873;SDS011;2451;49.970;9.068;2023-03-12T13:24:18;11.10;;;7.85;;
4873;SDS011;2451;49.970;9.068;2023-03-12T13:29:39;12.00;;;8.68;;
4873;SDS011;2451;49.970;9.068;2023-03-12T13:32:08;14.30;;;8.95;;
4873;SDS011;2451;49.970;9.068;2023-03-12T13:34:55;11.93;;;8.70;;
4873;SDS011;2451;49.970;9.068;2023-03-12T13:37:28;12.82;;;7.97;;
4873;SDS011;2451;49.970;9.068;2023-03-12T13:43:15;13.57;;;9.80;;
4873;SDS011;2451;49.970;9.068;2023-03-12T13:48:31;14.13;;;9.52;;
4873;SDS011;2451;49.970;9.068;2023-03-12T13:51:01;13.35;;;10.43;;
4873;SDS011;2451;49.970;9.068;2023-03-12T13:53:40;12.35;;;9.30;;
4873;SDS011;2451;49.970;9.068;2023-03-12T13:56:08;13.02;;;10.10;;
4873;SDS011;2451;49.970;9.068;2023-03-12T14:01:25;13.20;;;8.88;;
4873;SDS011;2451;49.970;9.068;2023-03-12T14:03:55;11.65;;;8.85;;
4873;SDS011;2451;49.970;9.068;2023-03-12T14:06:37;13.23;;;8.27;;
4873;SDS011;2451;49.970;9.068;2023-03-12T14:09:26;12.57;;;8.45;;
4873;SDS011;2451;49.970;9.068;2023-03-12T14:17:09;13.20;;;8.90;;
4873;SDS011;2451;49.970;9.068;2023-03-12T14:19:42;10.57;;;8.23;;
4873;SDS011;2451;49.970;9.068;2023-03-12T14:22:11;12.80;;;8.75;;
4873;SDS011;2451;49.970;9.068;2023-03-12T14:24:39;16.95;;;9.60;;
4873;SDS011;2451;49.970;9.068;2023-03-12T14:27:16;13.40;;;9.85;;
4873;SDS011;2451;49.970;9.068;2023-03-12T14:29:44;13.07;;;9.40;;
4873;SDS011;2451;49.970;9.068;2023-03-12T14:32:35;13.38;;;9.65;;
4873;SDS011;2451;49.970;9.068;2023-03-12T14:35:07;15.98;;;10.50;;
4873;SDS011;2451;49.970;9.068;2023-03-12T14:37:45;16.83;;;10.03;;
4873;SDS011;2451;49.970;9.068;2023-03-12T14:40:44;19.35;;;9.85;;
4873;SDS011;2451;49.970;9.068;2023-03-12T14:43:20;15.90;;;9.70;;
4873;SDS011;2451;49.970;9.068;2023-03-12T14:45:59;14.65;;;9.40;;
4873;SDS011;2451;49.970;9.068;2023-03-12T14:48:27;31.02;;;14.43;;
4873;SDS011;2451;49.970;9.068;2023-03-12T14:50:55;20.02;;;12.30;;
4873;SDS011;2451;49.970;9.068;2023-03-12T14:53:24;16.38;;;10.00;;
4873;SDS011;2451;49.970;9.068;2023-03-12T14:58:48;15.25;;;10.32;;
4873;SDS011;2451;49.970;9.068;2023-03-12T15:01:16;17.13;;;10.70;;
4873;SDS011;2451;49.970;9.068;2023-03-12T15:03:45;19.85;;;10.80;;
4873;SDS011;2451;49.970;9.068;2023-03-12T15:06:14;14.10;;;8.37;;
4873;SDS011;2451;49.970;9.068;2023-03-12T15:08:43;15.52;;;8.57;;
4873;SDS011;2451;49.970;9.068;2023-03-12T15:11:09;15.63;;;9.48;;
4873;SDS011;2451;49.970;9.068;2023-03-12T15:13:36;11.27;;;6.10;;
4873;SDS011;2451;49.970;9.068;2023-03-12T15:16:03;13.73;;;6.63;;
4873;SDS011;2451;49.970;9.068;2023-03-12T15:18:30;15.73;;;6.88;;
4873;SDS011;2451;49.970;9.068;2023-03-12T15:20:57;11.48;;;5.57;;
4873;SDS011;2451;49.970;9.068;2023-03-12T15:23:25;16.23;;;6.05;;
4873;SDS011;2451;49.970;9.068;2023-03-12T15:28:34;10.40;;;5.57;;
4873;SDS011;2451;49.970;9.068;2023-03-12T15:31:04;14.70;;;6.07;;
4873;SDS011;2451;49.970;9.068;2023-03-12T15:33:30;14.35;;;5.57;;
4873;SDS011;2451;49.970;9.068;2023-03-12T15:38:30;17.00;;;6.80;;
4873;SDS011;2451;49.970;9.068;2023-03-12T15:41:01;12.73;;;5.93;;
4873;SDS011;2451;49.970;9.068;2023-03-12T15:43:31;14.48;;;6.72;;
4873;SDS011;2451;49.970;9.068;2023-03-12T15:45:58;17.80;;;8.15;;
4873;SDS011;2451;49.970;9.068;2023-03-12T15:48:31;16.75;;;7.57;;
4873;SDS011;2451;49.970;9.068;2023-03-12T15:51:00;13.00;;;6.30;;
4873;SDS011;2451;49.970;9.068;2023-03-12T15:53:27;16.60;;;6.82;;
4873;SDS011;2451;49.970;9.068;2023-03-12T15:55:57;16.33;;;7.35;;
4873;SDS011;2451;49.970;9.068;2023-03-12T15:58:34;15.40;;;6.38;;
4873;SDS011;2451;49.970;9.068;2023-03-12T16:01:09;16.60;;;7.23;;
4873;SDS011;2451;49.970;9.068;2023-03-12T16:03:39;18.52;;;7.95;;
4873;SDS011;2451;49.970;9.068;2023-03-12T16:06:10;18.40;;;7.20;;
4873;SDS011;2451;49.970;9.068;2023-03-12T16:11:35;20.00;;;8.45;;
4873;SDS011;2451;49.970;9.068;2023-03-12T16:16:29;21.95;;;8.68;;
4873;SDS011;2451;49.970;9.068;2023-03-12T16:18:55;19.58;;;8.43;;
4873;SDS011;2451;49.970;9.068;2023-03-12T16:21:21;17.92;;;8.48;;
4873;SDS011;2451;49.970;9.068;2023-03-12T16:23:47;17.25;;;9.25;;
4873;SDS011;2451;49.970;9.068;2023-03-12T16:26:12;19.67;;;9.57;;
4873;SDS011;2451;49.970;9.068;2023-03-12T16:28:39;24.60;;;10.02;;
4873;SDS011;2451;49.970;9.068;2023-03-12T16:31:09;19.75;;;10.48;;
4873;SDS011;2451;49.970;9.068;2023-03-12T16:33:36;21.42;;;10.80;;
4873;SDS011;2451;49.970;9.068;2023-03-12T16:36:01;25.20;;;13.50;;
4873;SDS011;2451;49.970;9.068;2023-03-12T16:38:27;21.50;;;11.18;;
4873;SDS011;2451;49.970;9.068;2023-03-12T16:40:52;19.92;;;8.20;;
4873;SDS011;2451;49.970;9.068;2023-03-12T16:43:19;25.92;;;10.50;;
4873;SDS011;2451;49.970;9.068;2023-03-12T16:45:47;18.45;;;6.18;;
4873;SDS011;2451;49.970;9.068;2023-03-12T16:48:17;20.85;;;7.18;;
4873;SDS011;2451;49.970;9.068;2023-03-12T16:50:45;18.02;;;6.13;;
4873;SDS011;2451;49.970;9.068;2023-03-12T16:53:13;11.60;;;3.88;;
4873;SDS011;2451;49.970;9.068;2023-03-12T16:55:43;18.00;;;5.20;;
4873;SDS011;2451;49.970;9.068;2023-03-12T16:58:30;17.05;;;4.38;;
4873;SDS011;2451;49.970;9.068;2023-03-12T17:00:56;16.33;;;5.47;;
4873;SDS011;2451;49.970;9.068;2023-03-12T17:08:28;13.60;;;3.88;;
4873;SDS011;2451;49.970;9.068;2023-03-12T17:10:54;19.73;;;4.55;;